Terminal Aerodrome Forecast
Issued by NWS Wilmington, NC

Home | Current Version | Previous Version | Text Only | Print | Product List | Glossary On
Versions: 1 2 3 4 5 6 7 8 9 10 11 12 13 14 15 16 17 18 19 20 21
037
FTUS42 KILM 262320
TAFMYR
TAF
KMYR 262320Z 2700/2724 18013KT P6SM SCT040 SCT070 SCT200
     FM270500 22004KT P6SM SCT015 SCT080 BKN150
      TEMPO 2709/2712 4SM BR BKN010
     FM271300 17008KT P6SM BKN020
     FM271500 17012KT P6SM VCSH BKN035
     FM271900 17013G20KT P6SM SCT040=

USA.gov is the U.S. government's official web portal to all federal, state and local government web resources and services.